Time;durP1;ratioP1;P1;durP2;ratioP2;P2;SDS_P1;SDS_P2;PMS_P1;PMS_P2;Temp;Humidity;BMP_temperature;BMP_pressure;BME280_temperature;BME280_humidity;BME280_pressure;Samples;Min_cycle;Max_cycle;Signal;HPM_P1;HPM_P2
2022/11/13 00:02:23;;;;;;;3.52;2.90;;;;;;;10.25;98.08;100889.08;1737023;81;21470;-77
2022/11/13 00:05:09;;;;;;;4.08;3.70;;;;;;;10.20;98.29;100885.70;1736059;82;21194;-71
2022/11/13 00:07:54;;;;;;;4.42;4.03;;;;;;;10.18;98.70;100885.09;1716641;82;20960;-68
2022/11/13 00:10:40;;;;;;;3.83;3.20;;;;;;;10.16;99.02;100887.19;1730620;82;21036;-68
2022/11/13 00:13:25;;;;;;;4.17;3.83;;;;;;;10.18;99.45;100891.81;1713745;81;22227;-70
2022/11/13 00:16:13;;;;;;;4.85;3.42;;;;;;;10.17;99.65;100888.81;1735058;82;21039;-70
2022/11/13 00:18:59;;;;;;;6.03;4.05;;;;;;;10.17;99.75;100893.39;1736129;81;21702;-70
2022/11/13 00:21:46;;;;;;;3.62;3.33;;;;;;;10.15;100.00;100898.12;1741195;80;21652;-71
2022/11/13 00:24:31;;;;;;;4.42;2.90;;;;;;;10.11;100.00;100891.02;1722751;81;20981;-73
2022/11/13 00:27:16;;;;;;;7.25;3.00;;;;;;;10.11;100.00;100895.56;1748429;81;22448;-72
2022/11/13 00:30:01;;;;;;;2.60;2.40;;;;;;;10.11;100.00;100889.67;1745123;80;21064;-71
2022/11/13 00:32:47;;;;;;;2.72;2.52;;;;;;;10.12;100.00;100887.81;1700970;82;21715;-69
2022/11/13 00:35:32;;;;;;;4.05;2.45;;;;;;;10.09;100.00;100879.64;1703888;82;20980;-67
2022/11/13 00:38:18;;;;;;;3.87;2.83;;;;;;;10.05;100.00;100876.58;1730756;82;20944;-70
2022/11/13 00:41:02;;;;;;;4.08;2.30;;;;;;;10.05;100.00;100875.75;1735120;81;21020;-70
2022/11/13 00:43:47;;;;;;;3.80;2.62;;;;;;;10.04;100.00;100888.88;1695849;82;20948;-74
2022/11/13 00:46:32;;;;;;;2.47;2.20;;;;;;;10.04;100.00;100868.72;1692039;82;21224;-73
2022/11/13 00:49:17;;;;;;;2.85;2.65;;;;;;;10.03;100.00;100861.17;1733028;80;20986;-73
2022/11/13 00:52:03;;;;;;;7.30;2.90;;;;;;;10.02;100.00;100872.95;1745121;80;21051;-70
2022/11/13 00:54:48;;;;;;;3.30;2.40;;;;;;;10.01;100.00;100872.68;1727534;81;21486;-77
2022/11/13 00:57:34;;;;;;;3.95;3.65;;;;;;;10.01;100.00;100870.50;1685280;82;21052;-76
2022/11/13 01:00:19;;;;;;;2.80;2.55;;;;;;;10.02;100.00;100869.47;1710103;81;21308;-78
2022/11/13 01:03:03;;;;;;;2.40;2.20;;;;;;;10.01;100.00;100863.78;1680133;82;21019;-74
2022/11/13 01:05:50;;;;;;;2.58;2.02;;;;;;;10.00;100.00;100866.16;1686487;84;21079;-70
2022/11/13 01:08:35;;;;;;;2.60;2.40;;;;;;;10.03;100.00;100854.97;1726779;81;21621;-73
2022/11/13 01:11:23;;;;;;;3.92;2.70;;;;;;;10.06;100.00;100861.27;1724211;82;21110;-72
2022/11/13 01:14:08;;;;;;;3.25;2.50;;;;;;;10.07;100.00;100861.58;1724758;80;21514;-75
2022/11/13 01:16:54;;;;;;;3.02;2.45;;;;;;;10.06;100.00;100850.52;1743717;80;20991;-82
2022/11/13 01:19:40;;;;;;;2.80;2.50;;;;;;;10.05;100.00;100852.89;1742749;81;21059;-73
2022/11/13 01:22:26;;;;;;;4.65;2.37;;;;;;;10.01;100.00;100844.45;1737608;81;21002;-79
2022/11/13 01:25:12;;;;;;;5.10;2.40;;;;;;;10.00;100.00;100846.83;1679156;82;21621;-72
2022/11/13 01:27:57;;;;;;;3.15;2.10;;;;;;;10.03;100.00;100846.39;1738113;81;21368;-71
2022/11/13 01:30:42;;;;;;;1.95;1.80;;;;;;;10.03;100.00;100847.73;1737364;81;20949;-70
2022/11/13 01:33:29;;;;;;;2.20;2.00;;;;;;;10.03;100.00;100854.97;1748505;81;20976;-74
2022/11/13 01:36:23;;;;;;;2.58;2.37;;;;;;;9.99;100.00;100844.35;1735882;81;21622;-73
2022/11/13 01:39:11;;;;;;;2.05;1.85;;;;;;;9.97;100.00;100838.39;1736370;82;20957;-72
2022/11/13 01:41:56;;;;;;;2.55;2.35;;;;;;;9.98;100.00;100833.30;1731363;81;21355;-72
2022/11/13 01:44:57;;;;;;;4.15;2.12;;;;;;;9.98;100.00;100838.15;1735241;81;21004;-75
2022/11/13 01:47:42;;;;;;;2.67;2.25;;;;;;;9.98;100.00;100837.33;1698646;82;21005;-73
2022/11/13 01:50:29;;;;;;;2.75;1.98;;;;;;;9.98;100.00;100831.95;1720105;82;21123;-75
2022/11/13 01:53:15;;;;;;;2.65;2.15;;;;;;;9.98;100.00;100838.67;1713406;81;21068;-76
2022/11/13 01:56:00;;;;;;;2.85;2.12;;;;;;;9.97;100.00;100831.16;1705951;81;21253;-75
2022/11/13 01:58:52;;;;;;;2.50;2.30;;;;;;;9.96;100.00;100840.25;1720720;81;20961;-71
2022/11/13 06:08:36;;;;;;;2.77;2.40;;;;;;;9.49;100.00;100903.34;1845839;76;23257;-71
2022/11/13 06:11:24;;;;;;;2.87;2.67;;;;;;;9.53;100.00;100901.87;1820427;78;20927;-70
2022/11/13 06:14:11;;;;;;;2.87;2.67;;;;;;;9.61;100.00;100912.37;1825057;77;20927;-71
2022/11/13 06:16:56;;;;;;;5.35;2.70;;;;;;;9.70;100.00;100910.25;1820100;78;21557;-72
2022/11/13 06:19:41;;;;;;;2.85;2.45;;;;;;;9.77;100.00;100919.64;1782969;79;20927;-71
2022/11/13 06:22:26;;;;;;;3.02;2.72;;;;;;;9.83;100.00;100920.92;1783034;77;21487;-71
2022/11/13 06:25:11;;;;;;;2.58;2.37;;;;;;;9.89;100.00;100917.39;1788259;77;20982;-71
2022/11/13 06:27:56;;;;;;;4.05;2.70;;;;;;;9.96;100.00;100912.81;1788814;77;21255;-71
2022/11/13 06:30:41;;;;;;;2.40;1.98;;;;;;;10.02;100.00;100918.65;1815927;77;20947;-70
2022/11/13 06:33:27;;;;;;;3.65;3.05;;;;;;;10.08;100.00;100929.06;1788467;77;20916;-72
2022/11/13 06:36:20;;;;;;;2.35;2.15;;;;;;;10.11;100.00;100917.89;1789574;77;20951;-72
2022/11/13 06:39:07;;;;;;;2.20;2.02;;;;;;;10.14;100.00;100913.42;1770519;77;20994;-71
2022/11/13 06:41:52;;;;;;;2.72;2.52;;;;;;;10.17;100.00;100918.38;1823756;77;21229;-71
2022/11/13 06:44:37;;;;;;;2.27;1.90;;;;;;;10.20;100.00;100918.48;1818865;77;21027;-68
2022/11/13 06:47:23;;;;;;;4.10;2.72;;;;;;;10.25;100.00;100928.89;1818899;78;20971;-68
2022/11/13 06:50:09;;;;;;;4.12;2.67;;;;;;;10.29;100.00;100931.97;1849165;77;21455;-68
2022/11/13 06:52:54;;;;;;;4.80;3.85;;;;;;;10.31;100.00;100925.31;1852390;77;20943;-68
2022/11/13 06:55:47;;;;;;;3.40;2.60;;;;;;;10.35;100.00;100914.97;1849389;77;21241;-68
2022/11/13 06:58:32;;;;;;;2.60;2.40;;;;;;;10.38;100.00;100919.38;1792434;77;21006;-70
2022/11/13 07:01:22;;;;;;;3.70;3.40;;;;;;;10.40;100.00;100930.76;1794219;77;21552;-71
2022/11/13 07:04:11;;;;;;;3.25;2.95;;;;;;;10.42;100.00;100917.07;1790626;77;20966;-69
2022/11/13 07:06:57;;;;;;;6.47;2.90;;;;;;;10.44;100.00;100925.77;1808377;77;21022;-69
2022/11/13 07:09:45;;;;;;;2.80;2.60;;;;;;;10.46;100.00;100928.52;1828838;77;21276;-69
2022/11/13 07:12:30;;;;;;;4.28;3.00;;;;;;;10.49;100.00;100918.69;1809515;77;21449;-71
2022/11/13 07:15:17;;;;;;;3.30;3.05;;;;;;;10.56;100.00;100915.09;1814853;77;20970;-71
2022/11/13 07:18:05;;;;;;;3.17;2.98;;;;;;;10.59;100.00;100916.02;1819484;77;20971;-70
2022/11/13 07:20:50;;;;;;;2.87;2.55;;;;;;;10.59;100.00;100914.16;1793081;78;21035;-68
2022/11/13 07:23:39;;;;;;;3.12;2.92;;;;;;;10.61;100.00;100936.78;1812570;77;20977;-72
2022/11/13 07:26:24;;;;;;;4.50;2.15;;;;;;;10.62;100.00;100927.16;1812833;77;21038;-72
2022/11/13 07:29:09;;;;;;;3.17;2.87;;;;;;;10.63;100.00;100907.29;1805011;77;21071;-69
2022/11/13 07:31:55;;;;;;;4.20;2.62;;;;;;;10.65;100.00;100910.56;1791061;78;20971;-69
2022/11/13 07:34:40;;;;;;;3.58;2.37;;;;;;;10.68;100.00;100923.59;1788212;77;22299;-69
2022/11/13 07:37:26;;;;;;;3.17;2.98;;;;;;;10.69;100.00;100923.91;1808015;77;21256;-70
2022/11/13 07:40:11;;;;;;;6.30;3.15;;;;;;;10.69;100.00;100931.15;1819403;78;20983;-70
2022/11/13 07:42:59;;;;;;;3.05;2.50;;;;;;;10.71;100.00;100920.97;1792855;77;21041;-70
2022/11/13 07:45:44;;;;;;;2.92;2.72;;;;;;;10.72;100.00;100920.77;1789294;77;21026;-70
2022/11/13 07:48:29;;;;;;;2.65;2.45;;;;;;;10.71;99.19;100915.59;1788026;77;21081;-73
2022/11/13 07:51:15;;;;;;;2.98;2.77;;;;;;;10.72;99.12;100926.14;1802081;77;21616;-72
2022/11/13 07:54:00;;;;;;;8.93;3.85;;;;;;;10.74;99.18;100938.05;1795260;77;20996;-73
2022/11/13 07:56:46;;;;;;;4.33;2.85;;;;;;;10.77;98.92;100920.92;1787728;77;20999;-71
2022/11/13 07:59:31;;;;;;;5.17;3.62;;;;;;;10.80;98.29;100935.27;1788436;77;21027;-69
2022/11/13 08:02:16;;;;;;;3.52;3.22;;;;;;;10.82;98.17;100926.98;1813851;77;21428;-69
2022/11/13 08:05:01;;;;;;;3.85;3.55;;;;;;;10.84;98.04;100932.44;1799646;77;22159;-69
2022/11/13 08:07:49;;;;;;;4.83;2.80;;;;;;;10.85;97.55;100930.05;1802417;77;21038;-67
2022/11/13 08:10:35;;;;;;;3.27;3.00;;;;;;;10.87;97.17;100931.19;1815624;77;20979;-74
2022/11/13 08:13:20;;;;;;;4.15;3.22;;;;;;;10.91;97.40;100927.00;1805123;77;20982;-72
2022/11/13 08:16:06;;;;;;;3.85;3.55;;;;;;;10.98;97.23;100935.03;1796202;77;21535;-77
2022/11/13 08:18:51;;;;;;;3.95;3.50;;;;;;;11.03;97.02;100948.65;1816156;77;21608;-77
2022/11/13 08:21:36;;;;;;;3.60;3.30;;;;;;;11.09;96.29;100926.20;1828277;77;20908;-75
2022/11/13 08:24:22;;;;;;;3.90;3.60;;;;;;;11.11;95.77;100927.64;1817754;78;21046;-75
2022/11/13 08:27:07;;;;;;;3.92;3.62;;;;;;;11.15;95.46;100937.43;1816114;77;20934;-75
2022/11/13 08:29:52;;;;;;;3.52;3.22;;;;;;;11.17;95.00;100932.66;1814446;78;20985;-76
2022/11/13 08:32:37;;;;;;;4.37;3.40;;;;;;;11.19;94.35;100940.80;1828449;77;21334;-75
2022/11/13 08:35:22;;;;;;;4.22;3.83;;;;;;;11.20;94.25;100926.30;1819497;78;20915;-77
2022/11/13 08:38:08;;;;;;;3.65;3.40;;;;;;;11.21;93.53;100931.98;1826822;77;21047;-74
2022/11/13 08:40:58;;;;;;;4.55;4.15;;;;;;;11.22;93.45;100924.73;1784918;78;21081;-77
2022/11/13 08:43:44;;;;;;;3.25;2.95;;;;;;;11.23;93.17;100920.45;1816370;77;21069;-75
2022/11/13 08:46:29;;;;;;;4.00;3.60;;;;;;;11.24;92.82;100923.45;1793611;79;21392;-75
2022/11/13 08:49:15;;;;;;;3.85;3.55;;;;;;;11.24;92.83;100922.63;1808046;79;21465;-70
2022/11/13 08:52:00;;;;;;;3.80;3.50;;;;;;;11.27;92.78;100920.30;1819172;77;21483;-70
2022/11/13 08:54:45;;;;;;;4.60;3.20;;;;;;;11.30;92.28;100907.75;1810315;77;21107;-71
2022/11/13 08:57:31;;;;;;;3.20;3.00;;;;;;;11.36;92.29;100914.11;1809478;77;21151;-72
2022/11/13 09:00:17;;;;;;;3.45;3.15;;;;;;;11.37;91.50;100910.34;1818373;77;21172;-73
2022/11/13 09:03:02;;;;;;;4.00;3.62;;;;;;;11.41;91.57;100904.83;1798423;77;21697;-75
2022/11/13 09:05:47;;;;;;;6.50;3.65;;;;;;;11.47;91.12;100902.56;1823116;77;21539;-71
2022/11/13 09:08:34;;;;;;;4.72;3.50;;;;;;;11.49;90.59;100906.39;1794233;77;21093;-75
2022/11/13 09:11:19;;;;;;;4.22;2.98;;;;;;;11.49;89.87;100909.91;1822168;77;21008;-74
2022/11/13 09:14:05;;;;;;;3.47;3.17;;;;;;;11.50;89.64;100888.66;1817938;78;21269;-73
2022/11/13 09:16:49;;;;;;;3.62;3.33;;;;;;;11.43;89.00;100881.16;1818177;78;20963;-71
2022/11/13 09:19:35;;;;;;;4.03;3.67;;;;;;;11.44;89.23;100894.94;1815221;77;21054;-75
2022/11/13 09:22:20;;;;;;;4.22;3.10;;;;;;;11.48;89.11;100896.65;1822983;78;21480;-73
2022/11/13 09:25:07;;;;;;;4.47;3.98;;;;;;;11.51;88.70;100894.87;1823502;77;21027;-72
2022/11/13 09:27:56;;;;;;;6.00;3.80;;;;;;;11.57;88.76;100889.91;1827254;77;21101;-71
2022/11/13 09:30:41;;;;;;;3.77;3.47;;;;;;;11.64;88.33;100886.61;1808416;78;21031;-68
2022/11/13 09:33:27;;;;;;;4.17;3.25;;;;;;;11.62;87.63;100890.05;1818147;77;21740;-70
2022/11/13 09:36:13;;;;;;;3.40;3.10;;;;;;;11.63;87.94;100889.00;1816517;77;20984;-70
2022/11/13 09:38:59;;;;;;;3.95;3.15;;;;;;;11.68;88.21;100891.31;1810849;77;21171;-70
2022/11/13 09:41:58;;;;;;;4.20;3.80;;;;;;;11.76;87.88;100898.28;1816628;78;22085;-70
2022/11/13 09:44:51;;;;;;;4.25;3.85;;;;;;;11.76;87.24;100895.06;1818014;78;21408;-70
2022/11/13 09:47:43;;;;;;;4.75;3.37;;;;;;;11.77;87.46;100889.98;1831922;77;21021;-74
2022/11/13 09:50:29;;;;;;;3.60;3.25;;;;;;;11.84;87.50;100895.81;1796186;78;21047;-74
2022/11/13 09:53:14;;;;;;;3.30;3.10;;;;;;;11.84;86.97;100885.86;1817589;78;21148;-73
2022/11/13 09:56:23;;;;;;;3.83;3.47;;;;;;;11.85;86.80;100888.83;1790890;78;21059;-74
2022/11/13 09:59:46;;;;;;;4.28;3.40;;;;;;;11.86;86.56;100895.87;1839013;78;21323;-77
2022/11/13 10:03:10;;;;;;;5.35;3.47;;;;;;;11.84;86.49;100903.90;1829036;77;20956;-73
2022/11/13 10:06:07;;;;;;;3.67;3.37;;;;;;;11.84;86.50;100890.42;1836678;77;21658;-76
2022/11/13 10:08:57;;;;;;;3.80;3.50;;;;;;;11.88;86.72;100894.30;1840852;77;22203;-74
2022/11/13 10:11:54;;;;;;;4.65;3.98;;;;;;;11.88;86.04;100884.34;1842905;77;21866;-77
2022/11/13 10:14:45;;;;;;;3.50;3.30;;;;;;;11.90;86.15;100887.61;1816785;77;21055;-76
2022/11/13 10:17:40;;;;;;;3.40;3.10;;;;;;;11.91;85.30;100884.39;1818467;78;20976;-76
2022/11/13 10:20:36;;;;;;;4.40;3.75;;;;;;;11.91;85.16;100872.27;1779190;78;20908;-73
2022/11/13 10:23:25;;;;;;;8.08;3.33;;;;;;;11.93;85.45;100873.70;1797261;77;21021;-73
2022/11/13 10:26:20;;;;;;;4.08;3.77;;;;;;;12.01;85.52;100873.88;1796176;77;21493;-74
2022/11/13 10:29:12;;;;;;;5.87;3.83;;;;;;;12.11;85.69;100866.88;1783690;78;21584;-75
2022/11/13 10:31:58;;;;;;;4.40;3.55;;;;;;;12.20;85.44;100871.41;1795791;78;20996;-72
2022/11/13 10:34:59;;;;;;;3.10;2.70;;;;;;;12.33;85.50;100870.36;1837659;77;21037;-75
2022/11/13 10:37:59;;;;;;;2.75;2.55;;;;;;;12.44;84.76;100877.66;1787906;77;21058;-70
2022/11/13 10:40:44;;;;;;;5.17;3.12;;;;;;;12.53;84.04;100861.41;1787485;80;21260;-71
2022/11/13 10:43:29;;;;;;;4.03;3.45;;;;;;;12.58;83.46;100864.23;1789056;78;20994;-71
2022/11/13 10:46:21;;;;;;;3.72;2.77;;;;;;;12.61;83.04;100864.58;1817450;77;21014;-71
2022/11/13 10:49:20;;;;;;;3.27;3.00;;;;;;;12.66;82.69;100851.76;1832868;78;20940;-71
2022/11/13 10:52:18;;;;;;;3.40;3.10;;;;;;;12.64;82.33;100859.26;1839730;78;21509;-70
2022/11/13 10:55:13;;;;;;;2.40;2.20;;;;;;;12.66;82.07;100851.20;1813189;78;21790;-70
2022/11/13 10:58:01;;;;;;;2.45;2.25;;;;;;;12.71;81.57;100847.01;1796601;77;21362;-72
2022/11/13 11:00:48;;;;;;;2.87;2.25;;;;;;;12.72;81.63;100844.58;1819851;78;21027;-73
2022/11/13 11:03:34;;;;;;;2.92;2.60;;;;;;;12.83;81.04;100847.28;1818593;78;21062;-70
2022/11/13 11:06:18;;;;;;;2.50;2.40;;;;;;;12.92;80.38;100856.66;1823355;77;20962;-71
2022/11/13 11:09:31;;;;;;;4.47;2.45;;;;;;;12.89;79.65;100856.32;1804307;78;21895;-72
2022/11/13 11:12:23;;;;;;;3.92;2.80;;;;;;;12.81;79.57;100847.20;1822618;78;21811;-71
2022/11/13 11:15:37;;;;;;;2.25;2.10;;;;;;;12.72;79.75;100848.09;1836783;77;20967;-69
2022/11/13 11:18:36;;;;;;;2.55;2.35;;;;;;;12.67;80.15;100846.63;1838862;77;21135;-75
2022/11/13 11:21:28;;;;;;;2.62;2.42;;;;;;;12.64;80.67;100839.02;1830548;77;21465;-72
2022/11/13 11:24:31;;;;;;;2.75;2.45;;;;;;;12.62;81.12;100838.41;1836573;77;21720;-80
2022/11/13 11:27:43;;;;;;;3.05;2.62;;;;;;;12.63;81.61;100831.97;1834871;77;21467;-75
2022/11/13 11:30:47;;;;;;;2.40;2.20;;;;;;;12.68;81.78;100833.44;1817963;77;20990;-78
2022/11/13 11:33:36;;;;;;;2.72;2.50;;;;;;;12.72;81.61;100834.60;1824768;77;21080;-76
2022/11/13 11:36:37;;;;;;;3.02;2.60;;;;;;;12.71;81.33;100838.91;1831038;77;21400;-78
2022/11/13 11:39:47;;;;;;;2.05;1.90;;;;;;;12.68;81.16;100832.91;1839237;77;21172;-76
2022/11/13 11:42:57;;;;;;;6.42;2.80;;;;;;;12.71;81.37;100832.95;1790855;80;20970;-76
2022/11/13 11:45:44;;;;;;;5.97;2.72;;;;;;;12.74;81.25;100828.97;1814408;77;21058;-76
2022/11/13 11:48:31;;;;;;;4.62;3.27;;;;;;;12.79;81.34;100825.04;1798289;78;21433;-76
2022/11/13 11:51:40;;;;;;;3.33;2.60;;;;;;;12.87;81.27;100817.92;1828794;77;21007;-76
2022/11/13 11:54:36;;;;;;;2.65;2.22;;;;;;;12.99;80.75;100825.48;1835343;77;21571;-77
2022/11/13 11:57:35;;;;;;;2.62;2.42;;;;;;;13.08;80.03;100810.55;1835994;77;20923;-73
2022/11/13 12:00:20;;;;;;;2.58;2.37;;;;;;;13.15;78.76;100823.94;1826222;77;20951;-77
2022/11/13 12:03:37;;;;;;;4.22;3.22;;;;;;;13.14;78.62;100816.91;1845189;77;21431;-76
2022/11/13 12:06:38;;;;;;;6.28;2.85;;;;;;;13.07;78.04;100813.78;1846376;77;21503;-75
2022/11/13 12:09:47;;;;;;;2.37;2.17;;;;;;;13.04;78.26;100817.49;1822114;77;21833;-75
2022/11/13 14:27:25;;;;;;;6.15;4.25;;;;;;;11.62;84.49;100800.59;1869428;76;22589;-76
2022/11/13 14:30:26;;;;;;;4.53;3.72;;;;;;;11.60;84.34;100807.28;1825835;78;20956;-77
2022/11/13 14:33:19;;;;;;;5.50;4.05;;;;;;;11.62;84.29;100806.51;1826021;78;22025;-75
2022/11/13 14:36:05;;;;;;;7.53;4.78;;;;;;;11.61;84.30;100803.51;1813968;78;21516;-77
2022/11/13 14:38:50;;;;;;;4.62;3.80;;;;;;;11.57;84.38;100805.84;1823111;78;20940;-88
2022/11/13 14:41:50;;;;;;;4.10;3.70;;;;;;;11.55;84.58;100801.75;1824754;78;20979;-77
2022/11/13 14:44:37;;;;;;;5.37;3.83;;;;;;;11.54;84.75;100806.84;1822679;78;21600;-82
2022/11/13 14:47:28;;;;;;;9.15;5.42;;;;;;;11.53;84.82;100803.31;1808594;78;21663;-69
2022/11/13 14:50:33;;;;;;;7.78;5.00;;;;;;;11.51;84.93;100801.37;1823178;78;21072;-74
2022/11/13 14:53:32;;;;;;;5.47;3.98;;;;;;;11.49;85.06;100801.31;1793147;80;20999;-79
2022/11/13 14:56:17;;;;;;;8.18;4.58;;;;;;;11.43;85.36;100800.88;1786322;78;21005;-71
2022/11/13 14:59:14;;;;;;;6.05;4.75;;;;;;;11.37;85.62;100802.08;1805655;78;21058;-74
2022/11/13 15:02:00;;;;;;;7.03;5.03;;;;;;;11.34;85.87;100803.89;1824870;78;21165;-72
2022/11/13 15:04:45;;;;;;;6.00;4.70;;;;;;;11.31;86.08;100803.02;1798708;78;21010;-72
2022/11/13 15:07:32;;;;;;;8.45;6.30;;;;;;;11.29;86.29;100809.14;1789103;80;21066;-73
2022/11/13 15:10:19;;;;;;;7.65;5.55;;;;;;;11.29;86.50;100819.08;1819823;77;20940;-70
2022/11/13 15:13:11;;;;;;;7.83;7.03;;;;;;;11.25;86.63;100813.86;1825384;78;21501;-68
2022/11/13 15:15:56;;;;;;;6.05;4.67;;;;;;;11.21;86.88;100816.19;1788826;78;21068;-69
2022/11/13 15:18:53;;;;;;;6.90;4.78;;;;;;;11.18;87.25;100813.93;1800318;77;21015;-71
2022/11/13 15:21:40;;;;;;;7.22;4.78;;;;;;;11.14;87.53;100811.39;1826095;77;21002;-70
2022/11/13 15:24:25;;;;;;;6.25;4.75;;;;;;;11.13;87.69;100815.65;1787671;80;21052;-71
2022/11/13 15:27:15;;;;;;;6.30;4.90;;;;;;;11.09;87.87;100822.02;1767926;79;21027;-70
2022/11/13 15:30:01;;;;;;;7.72;4.90;;;;;;;11.05;88.11;100815.97;1768450;78;21134;-75
2022/11/13 15:32:52;;;;;;;6.15;5.60;;;;;;;11.00;88.40;100817.16;1763526;79;20987;-73
2022/11/13 15:35:34;;;;;;;8.25;5.65;;;;;;;10.97;88.81;100825.70;1772559;80;21053;-72
2022/11/13 15:38:19;;;;;;;9.35;5.60;;;;;;;10.93;88.97;100817.25;1768742;79;20967;-70
2022/11/13 15:41:19;;;;;;;7.15;4.87;;;;;;;10.89;89.17;100818.20;1770183;78;21016;-69
2022/11/13 15:44:13;;;;;;;8.10;4.67;;;;;;;10.84;89.41;100822.09;1748069;80;21873;-71
2022/11/13 15:46:58;;;;;;;5.80;4.85;;;;;;;10.80;89.74;100815.52;1773490;80;20993;-69
2022/11/13 15:49:44;;;;;;;5.28;4.78;;;;;;;10.76;90.05;100821.56;1773049;80;20981;-68
2022/11/13 15:52:33;;;;;;;10.90;7.42;;;;;;;10.73;90.19;100813.44;1776034;79;20951;-77
2022/11/13 15:55:26;;;;;;;14.30;8.43;;;;;;;10.71;90.28;100810.13;1769053;81;21022;-72
2022/11/13 15:58:15;;;;;;;9.28;6.20;;;;;;;10.69;90.45;100818.14;1745050;80;21334;-68
2022/11/13 16:01:01;;;;;;;9.65;5.58;;;;;;;10.64;90.64;100820.67;1746314;79;21024;-69
2022/11/13 16:03:47;;;;;;;10.23;7.12;;;;;;;10.59;90.95;100820.00;1762618;80;21150;-72
2022/11/13 16:06:33;;;;;;;6.90;5.50;;;;;;;10.56;91.16;100833.05;1766111;79;21132;-69
2022/11/13 16:09:19;;;;;;;6.75;5.67;;;;;;;10.53;91.42;100826.26;1763783;79;21020;-76
2022/11/13 16:12:05;;;;;;;5.83;4.97;;;;;;;10.49;91.61;100828.58;1766300;80;21177;-75
2022/11/13 16:14:50;;;;;;;6.15;4.87;;;;;;;10.47;91.80;100832.52;1769750;80;21067;-73
2022/11/13 16:17:39;;;;;;;7.10;4.83;;;;;;;10.44;91.91;100826.24;1774635;80;20982;-74
2022/11/13 16:20:25;;;;;;;6.53;4.80;;;;;;;10.42;92.22;100835.04;1770060;80;21083;-75
2022/11/13 16:23:13;;;;;;;7.80;5.58;;;;;;;10.39;92.37;100832.80;1775665;80;21060;-76
2022/11/13 16:25:58;;;;;;;7.65;5.22;;;;;;;10.38;92.68;100836.53;1747886;80;21176;-78
2022/11/13 16:28:43;;;;;;;7.37;5.65;;;;;;;10.36;92.84;100823.30;1746729;82;21043;-77
2022/11/13 16:31:30;;;;;;;6.92;5.20;;;;;;;10.33;93.02;100825.09;1746479;82;21050;-79
2022/11/13 16:34:14;;;;;;;8.15;5.53;;;;;;;10.31;93.23;100838.47;1764011;79;21530;-78
2022/11/13 16:37:00;;;;;;;6.35;5.58;;;;;;;10.29;93.45;100835.16;1770915;80;21010;-73
2022/11/13 16:39:45;;;;;;;7.85;6.25;;;;;;;10.25;93.63;100830.75;1753403;79;21270;-73
2022/11/13 16:42:31;;;;;;;8.70;6.10;;;;;;;10.25;93.91;100824.55;1759289;80;20947;-71
2022/11/13 16:45:16;;;;;;;8.93;6.05;;;;;;;10.22;94.13;100831.69;1752300;79;21057;-74
2022/11/13 16:48:01;;;;;;;6.42;4.90;;;;;;;10.20;94.23;100835.14;1769800;80;21485;-77
2022/11/13 16:50:46;;;;;;;8.90;5.00;;;;;;;10.16;94.51;100832.08;1768891;79;20966;-74
2022/11/13 16:53:30;;;;;;;7.75;4.85;;;;;;;10.15;94.69;100828.22;1771689;79;21148;-74
2022/11/13 16:56:26;;;;;;;12.05;6.17;;;;;;;10.12;95.14;100833.49;1763836;81;21455;-77
2022/11/13 16:59:12;;;;;;;6.75;5.45;;;;;;;10.11;95.41;100841.80;1768665;79;21084;-79
2022/11/13 17:01:57;;;;;;;6.58;5.28;;;;;;;10.10;95.59;100837.46;1780635;79;21011;-73
2022/11/13 17:04:42;;;;;;;6.28;5.20;;;;;;;10.07;95.81;100834.70;1770997;79;21036;-73
2022/11/13 17:07:27;;;;;;;7.62;5.60;;;;;;;10.03;95.87;100834.30;1751021;80;21146;-75
2022/11/13 17:10:16;;;;;;;12.07;5.67;;;;;;;10.01;96.35;100835.56;1757514;81;21579;-77
2022/11/13 17:13:01;;;;;;;7.95;5.55;;;;;;;9.99;96.63;100845.70;1743348;81;20988;-72
2022/11/13 17:15:46;;;;;;;7.62;5.75;;;;;;;9.96;96.91;100844.80;1781511;79;20993;-74
2022/11/13 17:18:31;;;;;;;10.15;6.35;;;;;;;9.97;97.07;100847.80;1766139;80;21158;-76
2022/11/13 17:21:16;;;;;;;7.53;6.20;;;;;;;9.96;97.15;100844.80;1801431;79;21240;-86
2022/11/13 17:24:02;;;;;;;7.53;5.95;;;;;;;9.94;97.39;100848.21;1774605;80;20955;-73
2022/11/13 17:26:47;;;;;;;5.85;5.17;;;;;;;9.92;97.78;100846.28;1772346;79;20968;-69
2022/11/13 17:29:33;;;;;;;12.23;5.58;;;;;;;9.90;98.08;100845.14;1783912;80;21452;-72
2022/11/13 17:32:18;;;;;;;7.87;6.12;;;;;;;9.91;98.30;100851.34;1786794;80;21032;-73
2022/11/13 17:35:04;;;;;;;7.72;5.62;;;;;;;9.91;98.36;100850.00;1773450;80;21535;-70
2022/11/13 17:37:51;;;;;;;7.08;5.83;;;;;;;9.92;98.51;100846.28;1765602;80;21984;-73
2022/11/13 17:40:38;;;;;;;8.90;6.17;;;;;;;9.91;98.43;100852.69;1786374;80;20983;-73
2022/11/13 17:43:23;;;;;;;6.65;5.35;;;;;;;9.88;98.49;100851.23;1742348;81;20920;-71
2022/11/13 17:46:13;;;;;;;7.67;6.22;;;;;;;9.86;98.79;100856.02;1772210;80;21497;-71
2022/11/13 17:48:58;;;;;;;8.85;4.72;;;;;;;9.84;99.04;100862.64;1771483;80;21718;-73
2022/11/13 17:51:44;;;;;;;5.80;5.30;;;;;;;9.83;99.29;100864.50;1773331;80;20935;-73
2022/11/13 17:54:29;;;;;;;9.35;6.03;;;;;;;9.84;99.32;100866.16;1780835;80;21014;-78
2022/11/13 17:57:16;;;;;;;7.53;5.37;;;;;;;9.84;99.37;100863.47;1755614;81;22234;-78
2022/11/13 18:00:02;;;;;;;7.10;6.00;;;;;;;9.84;99.35;100865.33;1786698;80;20979;-80
2022/11/13 18:02:47;;;;;;;9.30;6.30;;;;;;;9.81;99.34;100866.59;1786359;80;21054;-70
2022/11/13 18:05:35;;;;;;;7.47;5.60;;;;;;;9.77;99.48;100873.45;1774656;79;21026;-71
2022/11/13 18:08:20;;;;;;;8.68;5.42;;;;;;;9.75;99.84;100876.86;1761222;81;20990;-77
2022/11/13 18:11:18;;;;;;;7.85;6.08;;;;;;;9.74;100.00;100863.11;1758851;81;21014;-79
2022/11/13 18:14:00;;;;;;;9.15;5.92;;;;;;;9.73;100.00;100865.52;1743176;81;21071;-75
2022/11/13 18:16:45;;;;;;;7.58;5.47;;;;;;;9.71;100.00;100871.61;1748167;80;21633;-78
2022/11/13 18:19:31;;;;;;;8.80;4.95;;;;;;;9.67;100.00;100872.26;1779958;80;21031;-72
2022/11/13 18:22:15;;;;;;;7.83;5.10;;;;;;;9.65;100.00;100868.44;1784475;80;21006;-70
2022/11/13 18:25:02;;;;;;;9.05;5.22;;;;;;;9.63;100.00;100875.91;1776551;80;20956;-74
2022/11/13 22:27:49;;;;;;;4.72;3.37;;;;;;;7.99;100.00;100894.40;1766988;80;26211;-72
2022/11/13 22:30:34;;;;;;;9.68;3.50;;;;;;;8.02;100.00;100887.80;1748741;82;20960;-71
2022/11/13 22:33:20;;;;;;;7.75;3.22;;;;;;;8.08;100.00;100891.00;1747048;81;21247;-70
2022/11/13 22:36:08;;;;;;;4.53;4.10;;;;;;;8.14;100.00;100885.67;1729631;83;20984;-69
2022/11/13 22:38:55;;;;;;;4.15;3.05;;;;;;;8.21;100.00;100886.99;1738770;82;21565;-72
2022/11/13 22:41:42;;;;;;;6.65;3.95;;;;;;;8.26;100.00;100888.55;1748547;81;20941;-70
2022/11/13 22:44:26;;;;;;;7.30;4.10;;;;;;;8.29;100.00;100886.33;1732790;81;21019;-71
2022/11/13 22:47:12;;;;;;;6.10;3.22;;;;;;;8.33;100.00;100886.73;1729654;83;21802;-74
2022/11/13 22:49:59;;;;;;;7.03;3.52;;;;;;;8.36;100.00;100886.83;1712987;82;21535;-72
2022/11/13 22:52:44;;;;;;;7.05;3.37;;;;;;;8.38;100.00;100889.62;1729595;83;20990;-72
2022/11/13 22:55:30;;;;;;;4.60;3.10;;;;;;;8.37;100.00;100893.34;1729501;83;21038;-73
2022/11/13 22:58:15;;;;;;;6.72;3.42;;;;;;;8.36;100.00;100889.00;1736764;82;21049;-73
2022/11/13 23:01:06;;;;;;;5.12;3.15;;;;;;;8.35;100.00;100886.52;1748336;82;21219;-72
2022/11/13 23:03:51;;;;;;;6.75;3.30;;;;;;;8.30;100.00;100884.45;1748060;82;21036;-71
2022/11/13 23:06:37;;;;;;;5.10;3.45;;;;;;;8.23;100.00;100887.11;1746730;81;20950;-72
2022/11/13 23:09:22;;;;;;;5.62;3.75;;;;;;;8.24;100.00;100889.28;1746882;81;21580;-72
2022/11/13 23:12:08;;;;;;;4.45;3.72;;;;;;;8.24;100.00;100888.77;1748283;82;21048;-72
2022/11/13 23:14:53;;;;;;;6.10;3.70;;;;;;;8.21;100.00;100891.84;1748335;82;21121;-73
2022/11/13 23:17:40;;;;;;;5.35;4.20;;;;;;;8.18;100.00;100892.27;1748299;82;21564;-72
2022/11/13 23:20:24;;;;;;;3.75;3.30;;;;;;;8.16;100.00;100885.44;1746980;81;21611;-71
2022/11/13 23:23:09;;;;;;;3.55;3.25;;;;;;;8.15;100.00;100887.84;1748233;82;21092;-71
2022/11/13 23:25:55;;;;;;;3.67;3.30;;;;;;;8.15;100.00;100887.84;1747086;82;21060;-73